sensor_id;sensor_type;location;lat;lon;timestamp;pressure;altitude;pressure_sealevel;temperature;humidity
70133;BME280;57495;49.922;7.966;2023-06-04T00:01:40;100122.00;;;16.41;41.67
70133;BME280;57495;49.922;7.966;2023-06-04T00:03:41;100118.13;;;16.44;42.50
70133;BME280;57495;49.922;7.966;2023-06-04T00:05:43;100121.72;;;16.36;43.39
70133;BME280;57495;49.922;7.966;2023-06-04T00:07:44;100121.72;;;16.05;42.68
70133;BME280;57495;49.922;7.966;2023-06-04T00:09:46;100127.53;;;16.17;44.16
70133;BME280;57495;49.922;7.966;2023-06-04T00:11:48;100124.53;;;16.12;43.76
70133;BME280;57495;49.922;7.966;2023-06-04T00:13:50;100114.78;;;16.02;45.05
70133;BME280;57495;49.922;7.966;2023-06-04T00:15:52;100116.50;;;15.95;45.08
70133;BME280;57495;49.922;7.966;2023-06-04T00:17:53;100120.25;;;15.86;43.99
70133;BME280;57495;49.922;7.966;2023-06-04T00:19:56;100115.16;;;15.99;44.64
70133;BME280;57495;49.922;7.966;2023-06-04T00:21:58;100122.44;;;15.91;44.53
70133;BME280;57495;49.922;7.966;2023-06-04T00:24:00;100116.91;;;15.84;43.88
70133;BME280;57495;49.922;7.966;2023-06-04T00:26:01;100117.94;;;15.75;45.63
70133;BME280;57495;49.922;7.966;2023-06-04T00:28:03;100123.66;;;15.80;45.39
70133;BME280;57495;49.922;7.966;2023-06-04T00:30:07;100119.47;;;15.77;45.69
70133;BME280;57495;49.922;7.966;2023-06-04T00:32:09;100115.94;;;15.77;45.13
70133;BME280;57495;49.922;7.966;2023-06-04T00:34:10;100118.28;;;15.72;45.09
70133;BME280;57495;49.922;7.966;2023-06-04T00:36:12;100125.69;;;15.70;44.51
70133;BME280;57495;49.922;7.966;2023-06-04T00:38:13;100123.19;;;15.68;44.80
70133;BME280;57495;49.922;7.966;2023-06-04T00:40:15;100122.03;;;15.54;44.97
70133;BME280;57495;49.922;7.966;2023-06-04T00:42:16;100128.06;;;15.56;45.90
70133;BME280;57495;49.922;7.966;2023-06-04T00:44:17;100127.06;;;15.57;46.03
70133;BME280;57495;49.922;7.966;2023-06-04T00:46:24;100123.72;;;15.55;46.47
70133;BME280;57495;49.922;7.966;2023-06-04T00:48:26;100130.28;;;15.53;47.18
70133;BME280;57495;49.922;7.966;2023-06-04T00:50:28;100125.91;;;15.43;47.51
70133;BME280;57495;49.922;7.966;2023-06-04T00:52:30;100125.09;;;15.43;48.38
70133;BME280;57495;49.922;7.966;2023-06-04T00:54:32;100129.47;;;15.36;48.17
70133;BME280;57495;49.922;7.966;2023-06-04T00:56:34;100123.44;;;15.17;49.61
70133;BME280;57495;49.922;7.966;2023-06-04T00:58:38;100128.31;;;15.14;48.94
70133;BME280;57495;49.922;7.966;2023-06-04T01:00:40;100134.56;;;15.06;49.50
70133;BME280;57495;49.922;7.966;2023-06-04T01:02:45;100133.03;;;14.95;49.31
70133;BME280;57495;49.922;7.966;2023-06-04T01:04:55;100134.25;;;14.84;49.69
70133;BME280;57495;49.922;7.966;2023-06-04T01:07:03;100129.19;;;14.89;49.56
70133;BME280;57495;49.922;7.966;2023-06-04T01:09:05;100127.84;;;14.85;49.73
70133;BME280;57495;49.922;7.966;2023-06-04T01:11:07;100128.16;;;14.58;50.33
70133;BME280;57495;49.922;7.966;2023-06-04T01:13:08;100127.25;;;14.49;51.00
70133;BME280;57495;49.922;7.966;2023-06-04T01:15:10;100126.25;;;14.42;50.56
70133;BME280;57495;49.922;7.966;2023-06-04T01:17:15;100125.41;;;14.41;50.76
70133;BME280;57495;49.922;7.966;2023-06-04T01:19:38;100127.75;;;14.44;51.14
70133;BME280;57495;49.922;7.966;2023-06-04T01:21:50;100126.06;;;14.35;50.92
70133;BME280;57495;49.922;7.966;2023-06-04T01:23:53;100131.13;;;14.38;51.40
70133;BME280;57495;49.922;7.966;2023-06-04T01:26:00;100122.38;;;14.36;50.90
70133;BME280;57495;49.922;7.966;2023-06-04T01:28:04;100122.03;;;14.39;50.36
70133;BME280;57495;49.922;7.966;2023-06-04T01:30:08;100121.69;;;14.34;50.52
70133;BME280;57495;49.922;7.966;2023-06-04T01:32:10;100124.34;;;14.18;51.63
70133;BME280;57495;49.922;7.966;2023-06-04T01:34:12;100116.59;;;14.23;50.79
70133;BME280;57495;49.922;7.966;2023-06-04T01:36:15;100129.69;;;14.09;51.50
70133;BME280;57495;49.922;7.966;2023-06-04T01:38:17;100128.03;;;14.17;51.53
70133;BME280;57495;49.922;7.966;2023-06-04T01:40:18;100121.97;;;14.15;50.87
70133;BME280;57495;49.922;7.966;2023-06-04T01:42:20;100119.13;;;14.16;51.04
70133;BME280;57495;49.922;7.966;2023-06-04T01:44:21;100120.31;;;14.22;50.58
70133;BME280;57495;49.922;7.966;2023-06-04T01:46:22;100125.31;;;14.08;51.02
70133;BME280;57495;49.922;7.966;2023-06-04T01:48:24;100130.03;;;14.15;51.39
70133;BME280;57495;49.922;7.966;2023-06-04T01:50:25;100123.31;;;14.10;51.67
70133;BME280;57495;49.922;7.966;2023-06-04T01:52:28;100122.78;;;14.07;52.21
70133;BME280;57495;49.922;7.966;2023-06-04T01:54:29;100115.25;;;14.10;53.22
70133;BME280;57495;49.922;7.966;2023-06-04T01:56:32;100120.25;;;14.05;53.06
70133;BME280;57495;49.922;7.966;2023-06-04T01:58:34;100118.25;;;14.07;53.12
70133;BME280;57495;49.922;7.966;2023-06-04T02:00:36;100107.44;;;13.91;53.79
70133;BME280;57495;49.922;7.966;2023-06-04T02:02:38;100119.88;;;13.92;54.06
70133;BME280;57495;49.922;7.966;2023-06-04T02:04:41;100115.88;;;13.96;54.42
70133;BME280;57495;49.922;7.966;2023-06-04T02:06:42;100114.81;;;13.89;55.01
70133;BME280;57495;49.922;7.966;2023-06-04T02:08:45;100115.66;;;13.89;55.28
70133;BME280;57495;49.922;7.966;2023-06-04T02:10:46;100123.69;;;13.81;55.61
70133;BME280;57495;49.922;7.966;2023-06-04T02:12:55;100122.00;;;13.80;56.08
70133;BME280;57495;49.922;7.966;2023-06-04T02:14:57;100120.50;;;13.86;56.21
70133;BME280;57495;49.922;7.966;2023-06-04T02:16:58;100125.22;;;13.84;56.45
70133;BME280;57495;49.922;7.966;2023-06-04T02:19:00;100119.81;;;13.76;56.38
70133;BME280;57495;49.922;7.966;2023-06-04T02:21:01;100121.97;;;13.72;56.35
70133;BME280;57495;49.922;7.966;2023-06-04T02:23:02;100123.13;;;13.69;56.00
70133;BME280;57495;49.922;7.966;2023-06-04T02:25:06;100121.59;;;13.67;55.75
70133;BME280;57495;49.922;7.966;2023-06-04T02:27:09;100124.28;;;13.59;55.66
70133;BME280;57495;49.922;7.966;2023-06-04T02:29:11;100119.66;;;13.51;55.51
70133;BME280;57495;49.922;7.966;2023-06-04T02:31:12;100119.84;;;13.49;55.59
70133;BME280;57495;49.922;7.966;2023-06-04T02:33:13;100122.69;;;13.48;56.02
70133;BME280;57495;49.922;7.966;2023-06-04T02:35:15;100121.00;;;13.47;56.08
70133;BME280;57495;49.922;7.966;2023-06-04T02:37:17;100121.34;;;13.44;56.29
70133;BME280;57495;49.922;7.966;2023-06-04T02:39:19;100124.69;;;13.46;56.49
70133;BME280;57495;49.922;7.966;2023-06-04T02:41:23;100122.81;;;13.38;56.28
70133;BME280;57495;49.922;7.966;2023-06-04T02:43:25;100119.63;;;13.43;56.02
70133;BME280;57495;49.922;7.966;2023-06-04T02:45:26;100121.00;;;13.47;57.20
70133;BME280;57495;49.922;7.966;2023-06-04T02:47:29;100122.00;;;13.46;57.09
70133;BME280;57495;49.922;7.966;2023-06-04T02:49:30;100116.78;;;13.44;57.51
70133;BME280;57495;49.922;7.966;2023-06-04T02:51:31;100125.41;;;13.30;57.37
70133;BME280;57495;49.922;7.966;2023-06-04T02:53:33;100123.19;;;13.25;57.70
70133;BME280;57495;49.922;7.966;2023-06-04T02:55:35;100127.19;;;13.21;57.38
70133;BME280;57495;49.922;7.966;2023-06-04T02:57:39;100124.59;;;13.11;57.57
70133;BME280;57495;49.922;7.966;2023-06-04T02:59:42;100117.72;;;13.09;57.74
70133;BME280;57495;49.922;7.966;2023-06-04T03:01:43;100128.91;;;13.04;57.71
70133;BME280;57495;49.922;7.966;2023-06-04T03:03:45;100125.69;;;13.01;57.37
70133;BME280;57495;49.922;7.966;2023-06-04T03:05:46;100132.75;;;13.02;57.75
70133;BME280;57495;49.922;7.966;2023-06-04T03:07:48;100127.53;;;12.82;57.98
70133;BME280;57495;49.922;7.966;2023-06-04T03:09:50;100135.25;;;12.77;57.96
70133;BME280;57495;49.922;7.966;2023-06-04T03:11:51;100127.34;;;12.75;57.48
70133;BME280;57495;49.922;7.966;2023-06-04T03:13:54;100129.34;;;12.73;57.82
70133;BME280;57495;49.922;7.966;2023-06-04T03:15:55;100128.56;;;12.81;57.80
70133;BME280;57495;49.922;7.966;2023-06-04T03:18:00;100126.03;;;12.80;58.06
70133;BME280;57495;49.922;7.966;2023-06-04T03:20:02;100127.00;;;12.79;57.95
70133;BME280;57495;49.922;7.966;2023-06-04T03:22:05;100130.91;;;12.84;57.73
70133;BME280;57495;49.922;7.966;2023-06-04T03:24:07;100136.06;;;12.77;58.58
70133;BME280;57495;49.922;7.966;2023-06-04T03:26:08;100134.72;;;12.73;58.69
70133;BME280;57495;49.922;7.966;2023-06-04T03:28:13;100131.47;;;12.70;58.95
70133;BME280;57495;49.922;7.966;2023-06-04T03:30:16;100135.44;;;12.66;58.97
70133;BME280;57495;49.922;7.966;2023-06-04T03:32:17;100135.00;;;12.70;59.23
70133;BME280;57495;49.922;7.966;2023-06-04T03:34:19;100135.25;;;12.77;58.97
70133;BME280;57495;49.922;7.966;2023-06-04T03:36:20;100137.00;;;12.68;59.25
70133;BME280;57495;49.922;7.966;2023-06-04T03:38:31;100139.22;;;12.73;58.91
70133;BME280;57495;49.922;7.966;2023-06-04T03:40:33;100132.84;;;12.74;58.99
70133;BME280;57495;49.922;7.966;2023-06-04T03:42:34;100127.63;;;12.54;59.75
70133;BME280;57495;49.922;7.966;2023-06-04T03:44:35;100132.16;;;12.72;59.61
70133;BME280;57495;49.922;7.966;2023-06-04T03:46:38;100131.00;;;12.74;59.17
70133;BME280;57495;49.922;7.966;2023-06-04T03:48:40;100135.84;;;12.71;59.78
70133;BME280;57495;49.922;7.966;2023-06-04T03:50:42;100143.19;;;12.69;59.94
70133;BME280;57495;49.922;7.966;2023-06-04T03:52:46;100138.47;;;12.63;59.78
70133;BME280;57495;49.922;7.966;2023-06-04T03:54:47;100129.34;;;12.73;59.55
70133;BME280;57495;49.922;7.966;2023-06-04T03:56:49;100148.88;;;12.66;59.85
70133;BME280;57495;49.922;7.966;2023-06-04T03:58:50;100137.84;;;12.69;60.00
70133;BME280;57495;49.922;7.966;2023-06-04T04:00:51;100135.53;;;12.74;60.08
70133;BME280;57495;49.922;7.966;2023-06-04T04:02:54;100145.59;;;12.72;59.82
70133;BME280;57495;49.922;7.966;2023-06-04T04:04:56;100140.91;;;12.74;59.74
70133;BME280;57495;49.922;7.966;2023-06-04T04:06:57;100140.53;;;12.69;59.89
70133;BME280;57495;49.922;7.966;2023-06-04T04:08:59;100142.44;;;12.76;59.71
70133;BME280;57495;49.922;7.966;2023-06-04T04:11:01;100137.59;;;12.80;59.42
70133;BME280;57495;49.922;7.966;2023-06-04T04:13:02;100136.47;;;12.83;59.80
70133;BME280;57495;49.922;7.966;2023-06-04T04:15:04;100130.63;;;12.87;59.76
70133;BME280;57495;49.922;7.966;2023-06-04T04:17:06;100133.31;;;12.87;59.48
70133;BME280;57495;49.922;7.966;2023-06-04T04:19:09;100128.69;;;12.98;59.71
70133;BME280;57495;49.922;7.966;2023-06-04T04:21:11;100139.19;;;12.91;60.10
70133;BME280;57495;49.922;7.966;2023-06-04T04:23:13;100140.28;;;12.98;60.15
70133;BME280;57495;49.922;7.966;2023-06-04T04:25:15;100134.91;;;12.98;60.33
70133;BME280;57495;49.922;7.966;2023-06-04T04:27:16;100145.66;;;12.98;60.79
70133;BME280;57495;49.922;7.966;2023-06-04T04:29:17;100142.97;;;12.98;60.70
70133;BME280;57495;49.922;7.966;2023-06-04T04:31:22;100143.00;;;13.06;60.33
70133;BME280;57495;49.922;7.966;2023-06-04T04:33:23;100151.28;;;13.13;60.09
70133;BME280;57495;49.922;7.966;2023-06-04T04:35:27;100154.38;;;13.18;60.34
70133;BME280;57495;49.922;7.966;2023-06-04T04:37:29;100154.81;;;13.31;59.83
70133;BME280;57495;49.922;7.966;2023-06-04T04:39:30;100155.19;;;13.37;59.58
70133;BME280;57495;49.922;7.966;2023-06-04T04:41:31;100160.56;;;13.37;60.19
70133;BME280;57495;49.922;7.966;2023-06-04T04:43:34;100152.63;;;13.53;59.93
70133;BME280;57495;49.922;7.966;2023-06-04T04:45:36;100151.66;;;13.62;58.41
70133;BME280;57495;49.922;7.966;2023-06-04T04:47:38;100146.75;;;13.58;59.40
70133;BME280;57495;49.922;7.966;2023-06-04T04:49:39;100158.41;;;13.66;59.20
70133;BME280;57495;49.922;7.966;2023-06-04T04:51:42;100151.03;;;13.77;59.32
70133;BME280;57495;49.922;7.966;2023-06-04T04:53:43;100155.75;;;13.75;59.19
70133;BME280;57495;49.922;7.966;2023-06-04T04:55:45;100151.72;;;13.79;59.91
70133;BME280;57495;49.922;7.966;2023-06-04T04:57:46;100151.25;;;13.83;60.20
70133;BME280;57495;49.922;7.966;2023-06-04T04:59:48;100148.78;;;13.90;61.08
70133;BME280;57495;49.922;7.966;2023-06-04T05:01:49;100151.09;;;13.85;61.13
70133;BME280;57495;49.922;7.966;2023-06-04T05:03:50;100149.47;;;14.00;60.29
70133;BME280;57495;49.922;7.966;2023-06-04T05:05:52;100158.56;;;13.99;58.81
70133;BME280;57495;49.922;7.966;2023-06-04T05:07:55;100159.94;;;14.11;57.41
70133;BME280;57495;49.922;7.966;2023-06-04T05:09:56;100157.63;;;14.25;57.10
70133;BME280;57495;49.922;7.966;2023-06-04T05:11:59;100156.47;;;14.27;56.96
70133;BME280;57495;49.922;7.966;2023-06-04T05:14:00;100154.41;;;14.13;57.10
70133;BME280;57495;49.922;7.966;2023-06-04T05:16:02;100162.69;;;14.20;57.33
70133;BME280;57495;49.922;7.966;2023-06-04T05:18:06;100164.19;;;14.22;56.55
70133;BME280;57495;49.922;7.966;2023-06-04T05:20:08;100172.28;;;14.30;56.35
70133;BME280;57495;49.922;7.966;2023-06-04T05:22:11;100163.41;;;14.38;56.67
70133;BME280;57495;49.922;7.966;2023-06-04T05:24:17;100164.44;;;14.45;55.84
70133;BME280;57495;49.922;7.966;2023-06-04T05:26:18;100166.63;;;14.50;56.27
70133;BME280;57495;49.922;7.966;2023-06-04T05:28:23;100168.47;;;14.49;55.75
70133;BME280;57495;49.922;7.966;2023-06-04T05:30:25;100168.78;;;14.38;55.92
70133;BME280;57495;49.922;7.966;2023-06-04T05:32:27;100174.53;;;14.52;56.17
70133;BME280;57495;49.922;7.966;2023-06-04T05:34:28;100177.09;;;14.61;56.13
70133;BME280;57495;49.922;7.966;2023-06-04T05:36:30;100179.28;;;14.58;56.78
70133;BME280;57495;49.922;7.966;2023-06-04T05:38:32;100185.03;;;14.71;56.99
70133;BME280;57495;49.922;7.966;2023-06-04T05:40:37;100180.66;;;14.78;56.74
70133;BME280;57495;49.922;7.966;2023-06-04T05:42:38;100187.41;;;14.82;56.70
70133;BME280;57495;49.922;7.966;2023-06-04T05:44:40;100185.06;;;14.87;56.14
70133;BME280;57495;49.922;7.966;2023-06-04T05:46:41;100180.00;;;15.01;56.10
70133;BME280;57495;49.922;7.966;2023-06-04T05:48:42;100172.63;;;15.11;55.78
70133;BME280;57495;49.922;7.966;2023-06-04T05:50:44;100181.38;;;15.13;56.20
70133;BME280;57495;49.922;7.966;2023-06-04T05:52:47;100177.16;;;15.27;56.98
70133;BME280;57495;49.922;7.966;2023-06-04T05:54:48;100176.31;;;15.35;57.16
70133;BME280;57495;49.922;7.966;2023-06-04T05:56:51;100181.19;;;15.39;55.84
70133;BME280;57495;49.922;7.966;2023-06-04T05:58:53;100172.75;;;15.42;56.32
70133;BME280;57495;49.922;7.966;2023-06-04T06:00:54;100185.06;;;15.53;55.58
70133;BME280;57495;49.922;7.966;2023-06-04T06:02:56;100178.28;;;15.74;55.88
70133;BME280;57495;49.922;7.966;2023-06-04T06:04:57;100171.19;;;15.73;55.15
70133;BME280;57495;49.922;7.966;2023-06-04T06:06:58;100177.22;;;15.91;53.27
70133;BME280;57495;49.922;7.966;2023-06-04T06:09:00;100179.38;;;16.04;52.95
70133;BME280;57495;49.922;7.966;2023-06-04T06:11:01;100180.25;;;15.96;52.95
70133;BME280;57495;49.922;7.966;2023-06-04T06:13:05;100179.53;;;16.11;54.68
70133;BME280;57495;49.922;7.966;2023-06-04T06:15:08;100179.09;;;16.30;53.75
70133;BME280;57495;49.922;7.966;2023-06-04T06:17:10;100184.47;;;16.38;53.69
70133;BME280;57495;49.922;7.966;2023-06-04T06:19:11;100181.69;;;16.47;53.52
70133;BME280;57495;49.922;7.966;2023-06-04T06:21:13;100191.91;;;16.36;53.54
70133;BME280;57495;49.922;7.966;2023-06-04T06:23:14;100179.66;;;16.49;52.90
70133;BME280;57495;49.922;7.966;2023-06-04T06:25:17;100188.56;;;16.57;53.15
70133;BME280;57495;49.922;7.966;2023-06-04T06:27:18;100193.16;;;16.49;52.77
70133;BME280;57495;49.922;7.966;2023-06-04T06:29:21;100194.63;;;16.91;53.15
70133;BME280;57495;49.922;7.966;2023-06-04T06:31:22;100197.13;;;17.15;50.87
70133;BME280;57495;49.922;7.966;2023-06-04T06:33:24;100199.88;;;17.30;50.20
70133;BME280;57495;49.922;7.966;2023-06-04T06:35:25;100191.66;;;17.62;49.93
70133;BME280;57495;49.922;7.966;2023-06-04T06:37:27;100200.34;;;17.72;47.06
70133;BME280;57495;49.922;7.966;2023-06-04T06:39:28;100203.00;;;17.95;47.53
70133;BME280;57495;49.922;7.966;2023-06-04T06:41:29;100203.66;;;18.12;44.70
70133;BME280;57495;49.922;7.966;2023-06-04T06:43:31;100203.84;;;18.10;44.87
70133;BME280;57495;49.922;7.966;2023-06-04T06:45:34;100210.53;;;18.29;44.51
70133;BME280;57495;49.922;7.966;2023-06-04T06:47:36;100207.72;;;18.38;43.01
70133;BME280;57495;49.922;7.966;2023-06-04T06:49:37;100212.28;;;18.52;43.85
70133;BME280;57495;49.922;7.966;2023-06-04T06:51:38;100215.31;;;18.79;45.15
70133;BME280;57495;49.922;7.966;2023-06-04T06:53:40;100213.72;;;18.84;44.03
70133;BME280;57495;49.922;7.966;2023-06-04T06:55:41;100214.44;;;18.78;41.48
70133;BME280;57495;49.922;7.966;2023-06-04T06:57:43;100220.94;;;18.99;41.31
70133;BME280;57495;49.922;7.966;2023-06-04T06:59:45;100218.63;;;19.17;42.17
70133;BME280;57495;49.922;7.966;2023-06-04T07:01:48;100222.44;;;19.23;40.87
70133;BME280;57495;49.922;7.966;2023-06-04T07:03:49;100222.75;;;19.35;40.92
70133;BME280;57495;49.922;7.966;2023-06-04T07:05:50;100226.41;;;19.48;41.64
70133;BME280;57495;49.922;7.966;2023-06-04T07:07:52;100226.94;;;19.59;41.35
70133;BME280;57495;49.922;7.966;2023-06-04T07:09:54;100223.47;;;19.72;42.02
70133;BME280;57495;49.922;7.966;2023-06-04T07:11:56;100212.03;;;19.76;42.32
70133;BME280;57495;49.922;7.966;2023-06-04T07:13:57;100216.47;;;19.84;40.06
70133;BME280;57495;49.922;7.966;2023-06-04T07:15:58;100212.53;;;19.86;41.07
70133;BME280;57495;49.922;7.966;2023-06-04T07:18:01;100221.44;;;20.08;41.16
70133;BME280;57495;49.922;7.966;2023-06-04T07:20:03;100214.66;;;19.91;40.49
70133;BME280;57495;49.922;7.966;2023-06-04T07:22:06;100217.03;;;20.07;40.64
70133;BME280;57495;49.922;7.966;2023-06-04T07:24:08;100210.75;;;20.42;40.47
70133;BME280;57495;49.922;7.966;2023-06-04T07:26:09;100212.06;;;20.53;38.98
70133;BME280;57495;49.922;7.966;2023-06-04T07:28:11;100212.06;;;20.59;38.33
70133;BME280;57495;49.922;7.966;2023-06-04T07:30:12;100211.22;;;20.59;38.52
70133;BME280;57495;49.922;7.966;2023-06-04T07:32:14;100202.09;;;20.66;37.94
70133;BME280;57495;49.922;7.966;2023-06-04T07:34:16;100199.59;;;20.72;38.67
70133;BME280;57495;49.922;7.966;2023-06-04T07:36:18;100207.59;;;20.93;36.92
70133;BME280;57495;49.922;7.966;2023-06-04T07:38:20;100209.25;;;20.94;35.32
70133;BME280;57495;49.922;7.966;2023-06-04T07:40:22;100202.38;;;21.05;35.84
70133;BME280;57495;49.922;7.966;2023-06-04T07:42:23;100209.91;;;21.03;34.93
70133;BME280;57495;49.922;7.966;2023-06-04T07:44:24;100201.31;;;21.06;34.75
70133;BME280;57495;49.922;7.966;2023-06-04T07:46:26;100210.38;;;21.27;35.27
70133;BME280;57495;49.922;7.966;2023-06-04T07:48:28;100204.28;;;21.58;36.10
70133;BME280;57495;49.922;7.966;2023-06-04T07:50:32;100201.13;;;21.41;33.72
70133;BME280;57495;49.922;7.966;2023-06-04T07:52:34;100206.00;;;21.59;33.65
70133;BME280;57495;49.922;7.966;2023-06-04T07:54:35;100203.25;;;21.79;34.53
70133;BME280;57495;49.922;7.966;2023-06-04T07:56:37;100212.41;;;21.98;34.04
70133;BME280;57495;49.922;7.966;2023-06-04T07:58:39;100205.91;;;22.06;34.55
70133;BME280;57495;49.922;7.966;2023-06-04T08:00:40;100207.00;;;21.85;33.39
70133;BME280;57495;49.922;7.966;2023-06-04T08:02:42;100202.97;;;22.00;33.87
70133;BME280;57495;49.922;7.966;2023-06-04T08:04:43;100204.59;;;22.22;34.38
70133;BME280;57495;49.922;7.966;2023-06-04T08:06:46;100197.69;;;22.32;34.06
70133;BME280;57495;49.922;7.966;2023-06-04T08:08:49;100201.88;;;22.22;34.00
70133;BME280;57495;49.922;7.966;2023-06-04T08:10:51;100194.91;;;22.39;37.02
70133;BME280;57495;49.922;7.966;2023-06-04T08:12:52;100196.22;;;22.23;33.52
70133;BME280;57495;49.922;7.966;2023-06-04T08:14:54;100196.22;;;22.23;33.65
70133;BME280;57495;49.922;7.966;2023-06-04T08:16:57;100198.66;;;22.51;34.63
70133;BME280;57495;49.922;7.966;2023-06-04T08:18:58;100200.88;;;22.68;34.96
70133;BME280;57495;49.922;7.966;2023-06-04T08:21:00;100202.63;;;22.87;39.01
70133;BME280;57495;49.922;7.966;2023-06-04T08:23:02;100196.19;;;23.13;39.06
70133;BME280;57495;49.922;7.966;2023-06-04T08:25:04;100201.78;;;23.25;35.35
70133;BME280;57495;49.922;7.966;2023-06-04T08:27:06;100197.22;;;23.44;36.70
70133;BME280;57495;49.922;7.966;2023-06-04T08:29:08;100197.03;;;23.39;33.51
70133;BME280;57495;49.922;7.966;2023-06-04T08:31:10;100199.66;;;23.27;34.99
70133;BME280;57495;49.922;7.966;2023-06-04T08:33:11;100197.28;;;23.38;33.35
70133;BME280;57495;49.922;7.966;2023-06-04T08:35:13;100199.28;;;23.49;35.12
70133;BME280;57495;49.922;7.966;2023-06-04T08:37:14;100214.00;;;23.48;32.68
70133;BME280;57495;49.922;7.966;2023-06-04T08:39:17;100207.19;;;23.57;33.65
70133;BME280;57495;49.922;7.966;2023-06-04T08:41:24;100207.69;;;23.47;33.01
70133;BME280;57495;49.922;7.966;2023-06-04T08:43:29;100217.75;;;23.72;31.93
70133;BME280;57495;49.922;7.966;2023-06-04T08:45:32;100217.31;;;23.50;31.70
70133;BME280;57495;49.922;7.966;2023-06-04T08:47:34;100222.56;;;23.77;32.18
70133;BME280;57495;49.922;7.966;2023-06-04T08:49:40;100214.53;;;23.82;31.28
70133;BME280;57495;49.922;7.966;2023-06-04T08:51:42;100220.03;;;24.19;33.61
70133;BME280;57495;49.922;7.966;2023-06-04T08:53:43;100215.88;;;24.16;32.07
70133;BME280;57495;49.922;7.966;2023-06-04T08:55:52;100216.91;;;24.34;33.10
70133;BME280;57495;49.922;7.966;2023-06-04T08:57:54;100221.63;;;24.45;32.29
70133;BME280;57495;49.922;7.966;2023-06-04T08:59:56;100215.66;;;24.36;30.56
70133;BME280;57495;49.922;7.966;2023-06-04T09:01:58;100222.47;;;24.27;30.36
70133;BME280;57495;49.922;7.966;2023-06-04T09:04:03;100214.72;;;24.24;31.46
70133;BME280;57495;49.922;7.966;2023-06-04T09:06:05;100215.66;;;24.55;31.51
70133;BME280;57495;49.922;7.966;2023-06-04T09:08:08;100217.16;;;24.50;31.29
70133;BME280;57495;49.922;7.966;2023-06-04T09:10:15;100224.50;;;24.31;32.06
70133;BME280;57495;49.922;7.966;2023-06-04T09:12:21;100220.03;;;24.56;31.47
70133;BME280;57495;49.922;7.966;2023-06-04T09:14:26;100221.25;;;24.78;30.94
70133;BME280;57495;49.922;7.966;2023-06-04T09:16:27;100229.13;;;24.86;31.02
70133;BME280;57495;49.922;7.966;2023-06-04T09:18:35;100221.69;;;24.75;30.53
70133;BME280;57495;49.922;7.966;2023-06-04T09:20:37;100217.50;;;25.03;29.50
70133;BME280;57495;49.922;7.966;2023-06-04T09:22:38;100223.47;;;24.69;30.54
70133;BME280;57495;49.922;7.966;2023-06-04T09:24:41;100220.16;;;24.79;30.58
70133;BME280;57495;49.922;7.966;2023-06-04T09:26:42;100221.53;;;25.00;30.53
70133;BME280;57495;49.922;7.966;2023-06-04T09:28:46;100218.31;;;24.92;29.69
70133;BME280;57495;49.922;7.966;2023-06-04T09:30:51;100220.72;;;25.00;29.59
70133;BME280;57495;49.922;7.966;2023-06-04T09:32:52;100217.38;;;24.98;29.99
70133;BME280;57495;49.922;7.966;2023-06-04T09:34:55;100222.00;;;25.27;30.29
70133;BME280;57495;49.922;7.966;2023-06-04T09:36:58;100214.88;;;25.26;29.35
70133;BME280;57495;49.922;7.966;2023-06-04T09:39:00;100214.88;;;25.26;29.13
70133;BME280;57495;49.922;7.966;2023-06-04T09:41:02;100215.22;;;25.00;29.14
70133;BME280;57495;49.922;7.966;2023-06-04T09:43:06;100216.69;;;25.56;30.67
70133;BME280;57495;49.922;7.966;2023-06-04T09:45:10;100210.88;;;26.00;30.34
70133;BME280;57495;49.922;7.966;2023-06-04T09:47:11;100208.22;;;26.17;29.60
70133;BME280;57495;49.922;7.966;2023-06-04T09:49:13;100221.94;;;25.81;28.99
70133;BME280;57495;49.922;7.966;2023-06-04T09:51:15;100218.72;;;25.73;28.04
70133;BME280;57495;49.922;7.966;2023-06-04T09:53:20;100223.16;;;25.97;29.13
70133;BME280;57495;49.922;7.966;2023-06-04T09:55:23;100213.25;;;25.73;27.77
70133;BME280;57495;49.922;7.966;2023-06-04T09:57:25;100214.78;;;25.57;28.02
70133;BME280;57495;49.922;7.966;2023-06-04T09:59:30;100217.41;;;25.87;28.20
70133;BME280;57495;49.922;7.966;2023-06-04T10:01:39;100214.56;;;25.94;28.91
70133;BME280;57495;49.922;7.966;2023-06-04T10:03:44;100212.75;;;26.23;29.12
70133;BME280;57495;49.922;7.966;2023-06-04T10:05:47;100209.41;;;26.21;29.02
70133;BME280;57495;49.922;7.966;2023-06-04T10:07:51;100210.38;;;26.55;28.42
70133;BME280;57495;49.922;7.966;2023-06-04T10:09:52;100216.84;;;26.49;28.28
70133;BME280;57495;49.922;7.966;2023-06-04T10:11:59;100218.50;;;25.86;28.38
70133;BME280;57495;49.922;7.966;2023-06-04T10:14:03;100214.06;;;26.20;27.43
70133;BME280;57495;49.922;7.966;2023-06-04T10:16:08;100212.00;;;26.28;27.68
70133;BME280;57495;49.922;7.966;2023-06-04T10:18:11;100203.59;;;26.58;27.74
70133;BME280;57495;49.922;7.966;2023-06-04T10:20:15;100209.50;;;26.78;28.17
70133;BME280;57495;49.922;7.966;2023-06-04T10:22:18;100209.16;;;26.34;28.10
70133;BME280;57495;49.922;7.966;2023-06-04T10:24:20;100204.28;;;26.65;26.47
70133;BME280;57495;49.922;7.966;2023-06-04T10:26:23;100206.44;;;26.63;26.62
70133;BME280;57495;49.922;7.966;2023-06-04T10:28:25;100201.91;;;27.14;27.08
70133;BME280;57495;49.922;7.966;2023-06-04T10:30:29;100206.00;;;26.83;25.87
70133;BME280;57495;49.922;7.966;2023-06-04T10:32:30;100206.22;;;26.93;27.96
70133;BME280;57495;49.922;7.966;2023-06-04T10:34:34;100210.38;;;26.96;27.54
70133;BME280;57495;49.922;7.966;2023-06-04T10:36:42;100205.25;;;26.59;25.06
70133;BME280;57495;49.922;7.966;2023-06-04T10:38:47;100200.75;;;26.81;25.95
70133;BME280;57495;49.922;7.966;2023-06-04T10:40:49;100202.38;;;27.11;26.29